Time;durP1;ratioP1;P1;durP2;ratioP2;P2;SDS_P1;SDS_P2;PMS_P1;PMS_P2;Temp;Humidity;BMP_temperature;BMP_pressure;BME280_temperature;BME280_humidity;BME280_pressure;Samples;Min_cycle;Max_cycle;Signal;HPM_P1;HPM_P2
2023/09/09 00:00:40;;;;;;;18.00;9.95;;;;;;;;;;5060569;28;20095;-69
2023/09/09 00:03:07;;;;;;;18.17;9.27;;;;;;;;;;5081026;28;20056;-68
2023/09/09 00:05:34;;;;;;;16.65;10.32;;;;;;;;;;5075820;28;20059;-69
2023/09/09 00:08:01;;;;;;;18.23;10.15;;;;;;;;;;5082817;28;20333;-69
2023/09/09 00:10:29;;;;;;;17.85;10.60;;;;;;;;;;5059783;28;20056;-68
2023/09/09 00:12:57;;;;;;;17.38;9.55;;;;;;;;;;5078191;28;20059;-69
2023/09/09 00:15:23;;;;;;;17.70;10.02;;;;;;;;;;5062015;28;20080;-69
2023/09/09 00:17:52;;;;;;;20.27;9.68;;;;;;;;;;5069143;28;20059;-68
2023/09/09 00:20:19;;;;;;;17.52;10.23;;;;;;;;;;5070827;28;20079;-69
2023/09/09 00:22:46;;;;;;;20.42;9.43;;;;;;;;;;5088019;28;20060;-69
2023/09/09 00:25:12;;;;;;;16.80;9.13;;;;;;;;;;5078834;28;21559;-69
2023/09/09 00:27:39;;;;;;;19.58;9.95;;;;;;;;;;5067149;28;20055;-69
2023/09/09 00:30:08;;;;;;;17.58;9.70;;;;;;;;;;5067402;28;20117;-71
2023/09/09 00:32:35;;;;;;;17.25;10.18;;;;;;;;;;5062302;28;20044;-71
2023/09/09 00:35:03;;;;;;;32.30;19.05;;;;;;;;;;5069076;28;20047;-71
2023/09/09 00:37:30;;;;;;;45.17;22.85;;;;;;;;;;5079984;28;20062;-71
2023/09/09 00:39:57;;;;;;;83.30;46.80;;;;;;;;;;5084775;28;20109;-71
2023/09/09 00:42:24;;;;;;;40.50;22.35;;;;;;;;;;5080750;28;20044;-69
2023/09/09 00:44:51;;;;;;;29.65;16.63;;;;;;;;;;5075239;28;20051;-69
2023/09/09 00:47:18;;;;;;;22.42;12.43;;;;;;;;;;5061910;28;20084;-69
2023/09/09 00:49:46;;;;;;;24.23;12.33;;;;;;;;;;5061136;28;20047;-69
2023/09/09 00:52:14;;;;;;;21.48;10.10;;;;;;;;;;5040217;28;20071;-72
2023/09/09 00:54:41;;;;;;;18.00;11.00;;;;;;;;;;5056434;28;20040;-69
2023/09/09 00:57:08;;;;;;;19.08;10.55;;;;;;;;;;5076754;28;20060;-69
2023/09/09 00:59:35;;;;;;;16.98;10.25;;;;;;;;;;5081587;28;20044;-69
2023/09/09 01:02:03;;;;;;;16.92;10.52;;;;;;;;;;5067684;28;20052;-71
2023/09/09 01:04:31;;;;;;;19.23;10.93;;;;;;;;;;5065231;28;20208;-71
2023/09/09 01:07:02;;;;;;;18.08;10.32;;;;;;;;;;5084347;28;20052;-69
2023/09/09 01:09:31;;;;;;;17.75;10.77;;;;;;;;;;5081520;28;20196;-69
2023/09/09 01:11:59;;;;;;;17.58;10.95;;;;;;;;;;5082399;28;20131;-69
2023/09/09 01:14:26;;;;;;;;;;;;;;;;;;5058089;28;20068;-69
2023/09/09 01:16:54;;;;;;;23.25;10.43;;;;;;;;;;5061023;28;19951;-69
2023/09/09 01:19:24;;;;;;;19.70;11.85;;;;;;;;;;5082654;28;20153;-69
2023/09/09 01:21:52;;;;;;;22.65;12.60;;;;;;;;;;5064314;28;20114;-69
2023/09/09 01:24:21;;;;;;;19.92;12.38;;;;;;;;;;5058002;28;20048;-69
2023/09/09 01:26:48;;;;;;;20.67;12.73;;;;;;;;;;5061021;28;20050;-69
2023/09/09 01:29:14;;;;;;;20.63;12.77;;;;;;;;;;5087724;28;20059;-69
2023/09/09 01:31:41;;;;;;;20.35;12.85;;;;;;;;;;5067229;28;20083;-69
2023/09/09 01:34:08;;;;;;;23.02;12.55;;;;;;;;;;5064453;28;20138;-69
2023/09/09 01:36:35;;;;;;;22.00;13.10;;;;;;;;;;5078937;28;20055;-69
2023/09/09 01:39:03;;;;;;;24.20;12.25;;;;;;;;;;5064475;28;20048;-69
2023/09/09 01:41:31;;;;;;;32.20;13.27;;;;;;;;;;5082538;28;20063;-69
2023/09/09 01:43:57;;;;;;;;;;;;;;;;;;5065684;28;20060;-69
2023/09/09 01:46:24;;;;;;;22.42;12.48;;;;;;;;;;5044368;28;19924;-69
2023/09/09 01:48:51;;;;;;;22.27;12.85;;;;;;;;;;5068002;28;20049;-71
2023/09/09 01:51:18;;;;;;;22.33;14.25;;;;;;;;;;5046177;28;20048;-70
2023/09/09 01:53:44;;;;;;;23.02;13.38;;;;;;;;;;5053318;28;20135;-71
2023/09/09 01:56:11;;;;;;;26.80;14.38;;;;;;;;;;5075740;28;20051;-72
2023/09/09 01:58:39;;;;;;;24.85;14.80;;;;;;;;;;5062122;28;20087;-71
2023/09/09 02:01:06;;;;;;;25.85;13.95;;;;;;;;;;5078574;28;20056;-69
2023/09/09 02:03:33;;;;;;;26.75;15.40;;;;;;;;;;5025198;28;20185;-70
2023/09/09 02:06:00;;;;;;;24.58;14.60;;;;;;;;;;5057694;28;20036;-70
2023/09/09 02:08:27;;;;;;;26.73;15.80;;;;;;;;;;5055590;28;20136;-70
2023/09/09 02:10:54;;;;;;;28.85;15.13;;;;;;;;;;5070274;28;20076;-70
2023/09/09 02:13:21;;;;;;;25.77;15.25;;;;;;;;;;5051682;28;20048;-70
2023/09/09 02:15:49;;;;;;;25.40;15.35;;;;;;;;;;5036385;28;20053;-70
2023/09/09 02:18:16;;;;;;;;;;;;;;;;;;5040598;28;20052;-72
2023/09/09 02:20:43;;;;;;;26.92;13.80;;;;;;;;;;5048751;28;19930;-71
2023/09/09 02:23:10;;;;;;;25.60;15.27;;;;;;;;;;5065274;28;20048;-71
2023/09/09 02:25:38;;;;;;;26.42;16.50;;;;;;;;;;5062365;28;20047;-71
2023/09/09 02:28:05;;;;;;;26.77;15.20;;;;;;;;;;5080867;28;20048;-71
2023/09/09 02:30:32;;;;;;;25.98;15.73;;;;;;;;;;5076775;28;20071;-71
2023/09/09 02:33:00;;;;;;;26.35;14.80;;;;;;;;;;5065148;28;20051;-71
2023/09/09 02:35:27;;;;;;;27.65;15.13;;;;;;;;;;5060861;28;20081;-71
2023/09/09 02:37:54;;;;;;;28.27;15.70;;;;;;;;;;5075930;28;20062;-70
2023/09/09 02:40:21;;;;;;;25.70;14.45;;;;;;;;;;5037466;28;20135;-70
2023/09/09 02:42:48;;;;;;;34.08;15.38;;;;;;;;;;5063039;28;20057;-68
2023/09/09 02:45:15;;;;;;;24.38;14.52;;;;;;;;;;5040192;28;20048;-69
2023/09/09 02:47:42;;;;;;;30.38;16.55;;;;;;;;;;5067324;28;20049;-69
2023/09/09 02:50:11;;;;;;;28.27;16.38;;;;;;;;;;5056046;28;20052;-72
2023/09/09 02:52:38;;;;;;;26.67;14.38;;;;;;;;;;5043823;28;20076;-69
2023/09/09 02:55:06;;;;;;;30.80;17.10;;;;;;;;;;5050213;28;20079;-70
2023/09/09 02:57:33;;;;;;;27.98;15.77;;;;;;;;;;5063751;28;20066;-71
2023/09/09 02:59:59;;;;;;;32.53;16.73;;;;;;;;;;5064810;28;20058;-71
2023/09/09 03:02:26;;;;;;;30.42;17.17;;;;;;;;;;5076175;28;20048;-69
2023/09/09 03:04:53;;;;;;;26.55;16.15;;;;;;;;;;5060170;28;20059;-69
2023/09/09 03:07:22;;;;;;;28.77;15.88;;;;;;;;;;5062725;28;20071;-69
2023/09/09 03:09:49;;;;;;;29.90;17.27;;;;;;;;;;5063766;28;20052;-70
2023/09/09 03:12:20;;;;;;;27.45;16.85;;;;;;;;;;5060949;28;20071;-69
2023/09/09 03:14:47;;;;;;;27.13;15.70;;;;;;;;;;5059263;28;20148;-69
2023/09/09 03:17:15;;;;;;;29.42;15.73;;;;;;;;;;5079700;28;20044;-70
2023/09/09 03:19:42;;;;;;;28.88;16.67;;;;;;;;;;5062932;28;20066;-70
2023/09/09 03:22:09;;;;;;;28.10;16.55;;;;;;;;;;5062219;28;20048;-70
2023/09/09 03:24:37;;;;;;;29.95;16.90;;;;;;;;;;5053113;28;20086;-70
2023/09/09 03:27:05;;;;;;;27.23;15.70;;;;;;;;;;5065613;28;20059;-70
2023/09/09 03:29:32;;;;;;;30.60;15.77;;;;;;;;;;5069420;28;20056;-70
2023/09/09 03:31:58;;;;;;;27.90;16.75;;;;;;;;;;5063842;28;20105;-70
2023/09/09 03:34:25;;;;;;;28.98;16.58;;;;;;;;;;5053809;28;20142;-70
2023/09/09 03:36:52;;;;;;;31.30;16.92;;;;;;;;;;5069393;28;20052;-70
2023/09/09 03:39:19;;;;;;;27.02;16.30;;;;;;;;;;5063915;28;20048;-70
2023/09/09 03:41:47;;;;;;;27.35;16.17;;;;;;;;;;5071240;28;20048;-70
2023/09/09 03:44:14;;;;;;;;;;;;;;;;;;5056742;28;20058;-70
2023/09/09 03:46:40;;;;;;;24.90;14.57;;;;;;;;;;5091455;28;19955;-70
2023/09/09 03:49:07;;;;;;;28.35;16.15;;;;;;;;;;5084125;28;20059;-69
2023/09/09 03:51:34;;;;;;;28.35;16.85;;;;;;;;;;5065357;28;20082;-70
2023/09/09 03:54:01;;;;;;;29.27;17.13;;;;;;;;;;5061986;28;20052;-70
2023/09/09 03:56:28;;;;;;;27.33;15.97;;;;;;;;;;5060749;28;20058;-70
2023/09/09 03:58:57;;;;;;;31.55;17.48;;;;;;;;;;5063574;28;20619;-70
2023/09/09 04:01:24;;;;;;;33.00;17.90;;;;;;;;;;5087104;28;20082;-70
2023/09/09 04:03:50;;;;;;;29.88;16.60;;;;;;;;;;5062039;28;20135;-70
2023/09/09 04:06:19;;;;;;;30.20;17.48;;;;;;;;;;5064963;28;20059;-70
2023/09/09 04:08:46;;;;;;;32.30;17.52;;;;;;;;;;5066572;28;20050;-70
2023/09/09 04:11:13;;;;;;;32.60;17.38;;;;;;;;;;5086381;28;20063;-70
2023/09/09 04:13:40;;;;;;;27.77;16.80;;;;;;;;;;5060640;28;20052;-70
2023/09/09 04:16:09;;;;;;;31.50;17.02;;;;;;;;;;5068838;28;20059;-70
2023/09/09 04:18:36;;;;;;;30.52;17.08;;;;;;;;;;5065278;28;20059;-70
2023/09/09 04:21:02;;;;;;;33.10;18.25;;;;;;;;;;5084945;28;20048;-70
2023/09/09 04:23:29;;;;;;;30.73;18.63;;;;;;;;;;5067726;28;20064;-69
2023/09/09 04:25:56;;;;;;;32.60;18.13;;;;;;;;;;5058520;28;20052;-70
2023/09/09 04:28:23;;;;;;;30.50;18.05;;;;;;;;;;5057132;28;20052;-70
2023/09/09 04:30:50;;;;;;;30.15;17.40;;;;;;;;;;5061995;28;20079;-69
2023/09/09 04:33:18;;;;;;;33.88;17.05;;;;;;;;;;5063850;28;20080;-70
2023/09/09 04:35:45;;;;;;;26.52;16.08;;;;;;;;;;5058566;28;20057;-70
2023/09/09 04:38:12;;;;;;;24.52;16.02;;;;;;;;;;5057101;28;20052;-70
2023/09/09 04:40:41;;;;;;;28.88;16.35;;;;;;;;;;5064066;28;20063;-70
2023/09/09 04:43:08;;;;;;;25.00;15.85;;;;;;;;;;5062221;28;20052;-70
2023/09/09 04:45:35;;;;;;;26.38;14.85;;;;;;;;;;5058231;28;20151;-70
2023/09/09 04:48:02;;;;;;;31.38;16.13;;;;;;;;;;5068933;28;20056;-70
2023/09/09 04:50:30;;;;;;;26.73;15.63;;;;;;;;;;5039350;28;20048;-68
2023/09/09 04:52:58;;;;;;;26.20;15.50;;;;;;;;;;5046551;28;20191;-68
2023/09/09 04:55:24;;;;;;;27.95;17.13;;;;;;;;;;5072233;28;20051;-68
2023/09/09 04:57:51;;;;;;;29.75;17.05;;;;;;;;;;5064272;28;20048;-68
2023/09/09 05:00:18;;;;;;;25.58;16.63;;;;;;;;;;5057398;28;20152;-69
2023/09/09 05:02:45;;;;;;;25.02;16.35;;;;;;;;;;5062405;28;20052;-69
2023/09/09 05:05:12;;;;;;;24.52;15.68;;;;;;;;;;5075358;28;20056;-69
2023/09/09 05:07:40;;;;;;;27.50;16.90;;;;;;;;;;5047053;28;20052;-69
2023/09/09 05:10:08;;;;;;;30.65;17.27;;;;;;;;;;5036929;28;20128;-69
2023/09/09 05:12:36;;;;;;;28.90;17.00;;;;;;;;;;5052411;28;20187;-69
2023/09/09 05:15:04;;;;;;;;;;;;;;;;;;5049504;28;20143;-68
2023/09/09 05:17:31;;;;;;;29.37;16.37;;;;;;;;;;5060844;28;19935;-68
2023/09/09 05:19:58;;;;;;;27.83;17.75;;;;;;;;;;5046336;28;20299;-69
2023/09/09 05:22:24;;;;;;;30.33;17.50;;;;;;;;;;5057402;28;20221;-69
2023/09/09 05:24:53;;;;;;;28.77;17.88;;;;;;;;;;5058327;28;20060;-69
2023/09/09 05:27:20;;;;;;;25.83;17.35;;;;;;;;;;5062899;28;20091;-68
2023/09/09 05:29:47;;;;;;;30.17;18.90;;;;;;;;;;5061739;28;20045;-69
2023/09/09 05:32:14;;;;;;;30.02;19.10;;;;;;;;;;5059716;28;20064;-69
2023/09/09 05:34:41;;;;;;;28.35;18.35;;;;;;;;;;5040436;28;20052;-69
2023/09/09 05:37:08;;;;;;;25.23;18.55;;;;;;;;;;5045552;28;20053;-68
2023/09/09 05:39:35;;;;;;;30.50;19.13;;;;;;;;;;5045221;28;20051;-68
2023/09/09 05:42:07;;;;;;;24.05;17.20;;;;;;;;;;5064681;28;20051;-70
2023/09/09 05:44:35;;;;;;;29.10;19.08;;;;;;;;;;5036477;28;20041;-68
2023/09/09 05:47:01;;;;;;;27.40;19.08;;;;;;;;;;5067177;28;20139;-66
2023/09/09 05:49:28;;;;;;;31.48;20.10;;;;;;;;;;5066444;28;20040;-68
2023/09/09 05:51:55;;;;;;;30.85;20.52;;;;;;;;;;5066729;28;20052;-69
2023/09/09 05:54:22;;;;;;;27.85;19.38;;;;;;;;;;5026488;28;20083;-68
2023/09/09 05:56:49;;;;;;;28.95;18.90;;;;;;;;;;5063282;28;20139;-69
2023/09/09 05:59:17;;;;;;;32.47;20.98;;;;;;;;;;5066385;28;20037;-69
2023/09/09 06:01:44;;;;;;;33.53;21.67;;;;;;;;;;5054430;28;20053;-68
2023/09/09 06:04:12;;;;;;;32.78;20.88;;;;;;;;;;5031351;28;20056;-69
2023/09/09 06:06:39;;;;;;;35.08;20.40;;;;;;;;;;5044030;28;20056;-68
2023/09/09 06:09:06;;;;;;;42.67;23.08;;;;;;;;;;5043639;28;20084;-69
2023/09/09 06:11:33;;;;;;;38.22;22.58;;;;;;;;;;5045080;28;20059;-70
2023/09/09 06:14:00;;;;;;;37.25;23.70;;;;;;;;;;5061734;28;20133;-69
2023/09/09 06:16:28;;;;;;;37.58;23.23;;;;;;;;;;5056568;28;20127;-69
2023/09/09 06:18:55;;;;;;;39.70;23.80;;;;;;;;;;5049014;28;20035;-69
2023/09/09 06:21:22;;;;;;;38.35;23.83;;;;;;;;;;5047052;28;20094;-68
2023/09/09 06:23:49;;;;;;;35.35;22.20;;;;;;;;;;5040602;28;20091;-69
2023/09/09 06:26:16;;;;;;;38.80;22.80;;;;;;;;;;5057096;28;20041;-69
2023/09/09 06:28:45;;;;;;;32.70;21.33;;;;;;;;;;5058774;28;20056;-69
2023/09/09 06:31:12;;;;;;;37.67;23.00;;;;;;;;;;5063095;28;20060;-69
2023/09/09 06:33:40;;;;;;;37.88;23.17;;;;;;;;;;5043212;28;20083;-69
2023/09/09 06:36:07;;;;;;;37.50;22.73;;;;;;;;;;5037559;28;20056;-70
2023/09/09 06:38:34;;;;;;;38.92;23.77;;;;;;;;;;5059167;28;20076;-69
2023/09/09 06:41:01;;;;;;;38.35;23.00;;;;;;;;;;5047243;28;20143;-68
2023/09/09 06:43:28;;;;;;;37.50;23.98;;;;;;;;;;5060612;28;20067;-70
2023/09/09 06:45:55;;;;;;;47.50;29.65;;;;;;;;;;5032322;28;20148;-69
2023/09/09 06:48:22;;;;;;;37.75;23.60;;;;;;;;;;5032139;28;20064;-69
2023/09/09 06:50:50;;;;;;;37.45;23.75;;;;;;;;;;5041969;28;20040;-69
2023/09/09 06:53:17;;;;;;;40.40;24.90;;;;;;;;;;5041567;28;20052;-69
2023/09/09 06:55:45;;;;;;;40.80;25.60;;;;;;;;;;5036694;28;20092;-69
2023/09/09 06:58:12;;;;;;;42.85;25.88;;;;;;;;;;5038430;28;20044;-69
2023/09/09 07:00:39;;;;;;;51.92;28.17;;;;;;;;;;5034167;28;20040;-69
2023/09/09 07:03:07;;;;;;;40.70;25.25;;;;;;;;;;5059481;28;20052;-69
2023/09/09 07:05:34;;;;;;;44.15;25.63;;;;;;;;;;5033369;28;20048;-69
2023/09/09 07:08:02;;;;;;;47.45;26.23;;;;;;;;;;5042477;28;20056;-68
2023/09/09 07:10:30;;;;;;;45.50;26.85;;;;;;;;;;5035796;28;20079;-68
2023/09/09 07:12:57;;;;;;;43.95;26.38;;;;;;;;;;5048126;28;20048;-69
2023/09/09 07:15:24;;;;;;;50.15;28.15;;;;;;;;;;5051264;28;20064;-69
2023/09/09 07:17:51;;;;;;;50.22;28.55;;;;;;;;;;5060934;28;20044;-68
2023/09/09 07:20:18;;;;;;;51.92;29.35;;;;;;;;;;5033837;28;20053;-69
2023/09/09 07:22:45;;;;;;;50.13;28.67;;;;;;;;;;5057027;28;20194;-68
2023/09/09 07:25:13;;;;;;;52.80;28.65;;;;;;;;;;5039245;28;20069;-69
2023/09/09 07:27:40;;;;;;;;;;;;;;;;;;5041064;28;20048;-69
2023/09/09 07:30:10;;;;;;;56.78;28.13;;;;;;;;;;5039470;28;19920;-69
2023/09/09 07:32:37;;;;;;;55.95;30.15;;;;;;;;;;5037793;28;20053;-69
2023/09/09 07:35:04;;;;;;;52.65;30.63;;;;;;;;;;5037738;28;20052;-70
2023/09/09 07:37:31;;;;;;;68.50;34.25;;;;;;;;;;5041613;28;20048;-69
2023/09/09 07:39:59;;;;;;;79.00;36.70;;;;;;;;;;5041184;28;20055;-68
2023/09/09 07:42:27;;;;;;;72.43;38.33;;;;;;;;;;5031166;28;20053;-68
2023/09/09 07:44:54;;;;;;;55.97;32.03;;;;;;;;;;5035418;28;20052;-68
2023/09/09 07:47:21;;;;;;;71.55;34.90;;;;;;;;;;5058260;28;20068;-68
2023/09/09 07:49:48;;;;;;;70.55;36.83;;;;;;;;;;5038143;28;20074;-68
2023/09/09 07:52:15;;;;;;;71.85;35.42;;;;;;;;;;5035480;28;20044;-70
2023/09/09 07:54:42;;;;;;;77.68;38.47;;;;;;;;;;5033924;28;20059;-69
2023/09/09 07:57:08;;;;;;;84.60;41.38;;;;;;;;;;5056933;28;20110;-68
2023/09/09 07:59:39;;;;;;;90.93;44.80;;;;;;;;;;5058324;28;20057;-68
2023/09/09 08:02:07;;;;;;;82.03;40.38;;;;;;;;;;5036822;28;20045;-69
2023/09/09 08:04:36;;;;;;;80.18;40.38;;;;;;;;;;5051385;28;20887;-70
2023/09/09 08:07:03;;;;;;;88.03;40.25;;;;;;;;;;5042128;28;20063;-70
2023/09/09 08:09:31;;;;;;;88.60;42.35;;;;;;;;;;5036996;28;20163;-69
2023/09/09 08:11:57;;;;;;;91.53;40.33;;;;;;;;;;5041365;28;20116;-68
2023/09/09 08:14:24;;;;;;;81.32;40.00;;;;;;;;;;5029563;28;20173;-68
2023/09/09 08:16:55;;;;;;;82.63;41.10;;;;;;;;;;5040469;28;20055;-68
2023/09/09 08:19:22;;;;;;;76.38;36.80;;;;;;;;;;5041003;28;20052;-68
2023/09/09 08:21:48;;;;;;;88.38;41.20;;;;;;;;;;5055927;28;20051;-67
2023/09/09 08:24:15;;;;;;;90.63;43.30;;;;;;;;;;5038491;28;20052;-67
2023/09/09 08:26:42;;;;;;;86.35;44.83;;;;;;;;;;5035561;28;20063;-66
2023/09/09 08:29:09;;;;;;;97.13;49.67;;;;;;;;;;5049127;28;20140;-67
2023/09/09 08:31:36;;;;;;;95.82;48.05;;;;;;;;;;5062125;28;20136;-68
2023/09/09 08:34:05;;;;;;;87.30;42.67;;;;;;;;;;5037970;28;20061;-66
2023/09/09 08:36:32;;;;;;;86.40;42.58;;;;;;;;;;5030665;28;20056;-67
2023/09/09 08:38:59;;;;;;;90.07;42.67;;;;;;;;;;5023418;28;20053;-69
2023/09/09 08:41:41;;;;;;;95.13;46.60;;;;;;;;;;5030210;28;20060;-69
2023/09/09 08:44:16;;;;;;;84.68;41.63;;;;;;;;;;5036661;28;20170;-69
2023/09/09 08:46:42;;;;;;;73.15;38.00;;;;;;;;;;5052901;28;20056;-69
2023/09/09 08:49:14;;;;;;;81.72;40.83;;;;;;;;;;5060678;28;20060;-69
2023/09/09 08:51:48;;;;;;;69.97;37.67;;;;;;;;;;5044339;28;20044;-69
2023/09/09 08:54:16;;;;;;;88.40;40.05;;;;;;;;;;5031320;28;20052;-70
2023/09/09 08:56:45;;;;;;;75.35;39.58;;;;;;;;;;5049054;28;20060;-70
2023/09/09 08:59:13;;;;;;;73.68;35.58;;;;;;;;;;5043195;28;20235;-69
2023/09/09 09:01:44;;;;;;;77.25;38.25;;;;;;;;;;5043506;28;20052;-69
2023/09/09 09:04:13;;;;;;;66.93;33.65;;;;;;;;;;5041556;28;20052;-71
2023/09/09 09:06:42;;;;;;;68.95;35.88;;;;;;;;;;5042622;28;20052;-69
2023/09/09 09:09:09;;;;;;;68.32;34.67;;;;;;;;;;5043935;28;20089;-68
2023/09/09 09:11:36;;;;;;;63.80;31.88;;;;;;;;;;5043738;28;20122;-69
2023/09/09 09:14:10;;;;;;;58.58;31.58;;;;;;;;;;5037688;28;20052;-69
2023/09/09 09:16:40;;;;;;;64.80;34.30;;;;;;;;;;5046004;28;20053;-70
2023/09/09 09:19:08;;;;;;;60.53;31.75;;;;;;;;;;5044563;28;20055;-71
2023/09/09 09:21:37;;;;;;;67.35;34.13;;;;;;;;;;5043973;28;20274;-70
2023/09/09 09:24:05;;;;;;;55.85;27.52;;;;;;;;;;5036542;28;20057;-71
2023/09/09 09:26:32;;;;;;;48.00;26.08;;;;;;;;;;5041574;28;20256;-71
2023/09/09 09:29:04;;;;;;;52.42;27.02;;;;;;;;;;5069310;28;20048;-70
2023/09/09 09:31:31;;;;;;;55.72;27.88;;;;;;;;;;5064239;28;20048;-70
2023/09/09 09:33:59;;;;;;;53.63;27.60;;;;;;;;;;5045304;28;20056;-70
2023/09/09 09:36:27;;;;;;;49.88;26.05;;;;;;;;;;5041753;28;20044;-70
2023/09/09 09:38:56;;;;;;;57.28;29.08;;;;;;;;;;5047158;28;20044;-70
2023/09/09 09:41:23;;;;;;;60.50;28.42;;;;;;;;;;5045017;28;20044;-71
2023/09/09 09:43:52;;;;;;;51.72;28.25;;;;;;;;;;5038497;28;20058;-71
2023/09/09 09:46:21;;;;;;;55.15;28.27;;;;;;;;;;5037572;28;20040;-70
2023/09/09 09:48:49;;;;;;;71.80;34.42;;;;;;;;;;5042029;28;20051;-70
2023/09/09 09:51:17;;;;;;;73.53;39.60;;;;;;;;;;5038844;28;20076;-71
2023/09/09 09:53:53;;;;;;;49.90;27.00;;;;;;;;;;5052047;28;20048;-71
2023/09/09 09:56:22;;;;;;;42.05;23.30;;;;;;;;;;5037817;28;20048;-70
2023/09/09 09:58:51;;;;;;;45.83;24.88;;;;;;;;;;5062868;28;20048;-71
2023/09/09 10:01:18;;;;;;;42.88;23.35;;;;;;;;;;5068459;28;20079;-70
2023/09/09 10:03:48;;;;;;;49.92;25.15;;;;;;;;;;5060588;28;20060;-70
2023/09/09 10:06:22;;;;;;;49.75;23.70;;;;;;;;;;5059698;28;20080;-71
2023/09/09 10:08:58;;;;;;;42.15;20.77;;;;;;;;;;5052373;28;20134;-70
2023/09/09 10:11:33;;;;;;;43.90;23.55;;;;;;;;;;5060100;28;20135;-71
2023/09/09 10:14:12;;;;;;;48.88;24.52;;;;;;;;;;5038418;28;20057;-71
2023/09/09 10:16:45;;;;;;;36.85;19.88;;;;;;;;;;5043069;28;20136;-71
2023/09/09 10:19:12;;;;;;;27.08;15.25;;;;;;;;;;5041611;28;20135;-71
2023/09/09 10:21:42;;;;;;;22.20;12.75;;;;;;;;;;5043689;28;20268;-72
2023/09/09 10:24:10;;;;;;;25.00;11.80;;;;;;;;;;5035139;28;20059;-72
2023/09/09 10:26:39;;;;;;;20.20;11.50;;;;;;;;;;5037597;28;20079;-73
2023/09/09 10:29:06;;;;;;;20.25;10.98;;;;;;;;;;5063446;28;20048;-71
2023/09/09 10:31:36;;;;;;;24.83;12.00;;;;;;;;;;5046863;28;20045;-71
2023/09/09 10:34:04;;;;;;;15.98;9.23;;;;;;;;;;5041807;28;20058;-72
2023/09/09 10:36:36;;;;;;;23.83;12.77;;;;;;;;;;5043820;28;20036;-72
2023/09/09 10:39:04;;;;;;;14.75;8.13;;;;;;;;;;5056896;28;20135;-71
2023/09/09 10:41:32;;;;;;;17.03;6.60;;;;;;;;;;5041791;28;20048;-72
2023/09/09 10:44:00;;;;;;;10.38;5.40;;;;;;;;;;5054208;28;20318;-72
2023/09/09 10:46:34;;;;;;;10.55;4.75;;;;;;;;;;5045949;28;20048;-72
2023/09/09 10:49:03;;;;;;;9.40;4.57;;;;;;;;;;5022421;28;20049;-72
2023/09/09 10:51:43;;;;;;;9.05;4.28;;;;;;;;;;5040086;28;20139;-72
2023/09/09 10:54:13;;;;;;;10.40;5.35;;;;;;;;;;5012312;28;20072;-72
2023/09/09 10:56:46;;;;;;;10.90;5.05;;;;;;;;;;5041855;28;20049;-72
2023/09/09 10:59:19;;;;;;;10.80;5.30;;;;;;;;;;5063563;28;20094;-72
2023/09/09 11:01:48;;;;;;;8.75;4.45;;;;;;;;;;5058590;28;20168;-72
2023/09/09 11:04:20;;;;;;;15.75;6.88;;;;;;;;;;5021624;28;20167;-71
2023/09/09 11:07:07;;;;;;;13.60;7.50;;;;;;;;;;5042431;28;20044;-71
2023/09/09 11:09:34;;;;;;;14.45;6.57;;;;;;;;;;5043340;28;20051;-71
2023/09/09 11:12:13;;;;;;;16.77;7.17;;;;;;;;;;5041511;28;20045;-70
2023/09/09 11:14:45;;;;;;;13.73;8.15;;;;;;;;;;5014356;28;20048;-71
2023/09/09 11:17:13;;;;;;;17.30;7.55;;;;;;;;;;5059687;28;20044;-72
2023/09/09 11:19:43;;;;;;;15.07;8.15;;;;;;;;;;5043423;28;20044;-72
2023/09/09 11:22:12;;;;;;;15.20;8.25;;;;;;;;;;5041975;28;20041;-73
2023/09/09 11:24:39;;;;;;;18.63;9.23;;;;;;;;;;5018227;28;20061;-72
2023/09/09 11:27:08;;;;;;;14.88;8.70;;;;;;;;;;5031009;28;20139;-72
2023/09/09 11:29:37;;;;;;;20.52;9.52;;;;;;;;;;5041844;28;20048;-72
2023/09/09 11:32:23;;;;;;;17.13;9.35;;;;;;;;;;5064674;28;20048;-73
2023/09/09 11:34:53;;;;;;;17.80;9.93;;;;;;;;;;5035421;28;20072;-73
2023/09/09 11:37:20;;;;;;;23.45;11.80;;;;;;;;;;5043114;28;20068;-71
2023/09/09 11:39:47;;;;;;;20.67;11.43;;;;;;;;;;5040940;28;20069;-72
2023/09/09 11:42:14;;;;;;;22.40;11.77;;;;;;;;;;5038402;28;20098;-72
2023/09/09 11:44:42;;;;;;;19.50;11.20;;;;;;;;;;5036630;28;20210;-71
2023/09/09 11:47:10;;;;;;;;;;;;;;;;;;5041445;28;20044;-71
2023/09/09 11:49:39;;;;;;;21.02;11.65;;;;;;;;;;5041007;28;19932;-72
2023/09/09 11:52:08;;;;;;;25.25;13.38;;;;;;;;;;5040042;28;20049;-71
2023/09/09 11:54:35;;;;;;;22.73;12.32;;;;;;;;;;5032695;28;20207;-72
2023/09/09 11:57:06;;;;;;;18.58;10.93;;;;;;;;;;5044781;28;20059;-71
2023/09/09 11:59:44;;;;;;;16.67;9.93;;;;;;;;;;5045950;28;20147;-71
2023/09/09 12:02:18;;;;;;;18.65;10.55;;;;;;;;;;5040859;28;20052;-71
2023/09/09 12:04:56;;;;;;;17.45;10.20;;;;;;;;;;5040225;28;20301;-70
2023/09/09 12:07:26;;;;;;;20.13;10.07;;;;;;;;;;5030095;28;20049;-71
2023/09/09 12:09:53;;;;;;;15.60;9.55;;;;;;;;;;5052544;28;20109;-71
2023/09/09 12:12:21;;;;;;;17.80;9.83;;;;;;;;;;5056613;28;20056;-70
2023/09/09 12:14:48;;;;;;;;;;;;;;;;;;5051876;28;20310;-71
2023/09/09 12:17:16;;;;;;;18.42;9.68;;;;;;;;;;5047837;28;19932;-71
2023/09/09 12:19:43;;;;;;;22.53;13.63;;;;;;;;;;5065265;28;20047;-70
2023/09/09 12:22:27;;;;;;;24.80;11.43;;;;;;;;;;5061804;28;20309;-71
2023/09/09 12:24:54;;;;;;;17.70;9.10;;;;;;;;;;5059645;28;20047;-72
2023/09/09 12:27:22;;;;;;;19.10;9.73;;;;;;;;;;5053267;28;20056;-71
2023/09/09 12:29:49;;;;;;;14.53;8.50;;;;;;;;;;5059237;28;20112;-69
2023/09/09 12:32:17;;;;;;;14.23;8.57;;;;;;;;;;5038530;28;20144;-71
2023/09/09 12:34:44;;;;;;;14.68;8.55;;;;;;;;;;5039833;28;20056;-72
2023/09/09 12:37:13;;;;;;;21.63;8.67;;;;;;;;;;5046086;28;20133;-71
2023/09/09 12:39:44;;;;;;;12.45;7.78;;;;;;;;;;5023365;28;20129;-72
2023/09/09 12:42:12;;;;;;;12.30;6.47;;;;;;;;;;5029217;28;20044;-72
2023/09/09 12:44:49;;;;;;;20.67;11.10;;;;;;;;;;5046760;28;20028;-73
2023/09/09 12:47:21;;;;;;;26.20;13.73;;;;;;;;;;5023566;28;20053;-72
2023/09/09 12:49:48;;;;;;;13.85;7.82;;;;;;;;;;5039044;28;20110;-71
2023/09/09 12:52:17;;;;;;;14.02;7.00;;;;;;;;;;5043429;28;20048;-72
2023/09/09 12:54:44;;;;;;;13.93;7.00;;;;;;;;;;5041298;28;20048;-72
2023/09/09 12:57:11;;;;;;;11.90;7.03;;;;;;;;;;5022226;28;20068;-72
2023/09/09 12:59:38;;;;;;;11.60;6.22;;;;;;;;;;5058390;28;20109;-71
2023/09/09 13:02:06;;;;;;;12.15;5.82;;;;;;;;;;5051772;28;20094;-72
2023/09/09 13:04:33;;;;;;;16.15;6.50;;;;;;;;;;5047303;28;20052;-70
2023/09/09 13:07:00;;;;;;;14.38;5.85;;;;;;;;;;5031943;28;20060;-70
2023/09/09 13:09:29;;;;;;;8.93;4.68;;;;;;;;;;5039920;28;20130;-71
2023/09/09 13:12:00;;;;;;;11.00;5.72;;;;;;;;;;5044514;28;20048;-71
2023/09/09 13:14:27;;;;;;;9.07;5.03;;;;;;;;;;5044218;28;20080;-70
2023/09/09 13:16:54;;;;;;;9.43;4.90;;;;;;;;;;5024978;28;20056;-70
2023/09/09 13:19:22;;;;;;;11.82;5.07;;;;;;;;;;5037197;28;20076;-71
2023/09/09 13:21:49;;;;;;;13.88;5.03;;;;;;;;;;5032390;28;20052;-70
2023/09/09 13:24:16;;;;;;;9.98;4.82;;;;;;;;;;5038722;28;20048;-71
2023/09/09 13:26:46;;;;;;;11.75;4.55;;;;;;;;;;5023275;28;20050;-71
2023/09/09 13:29:14;;;;;;;9.40;4.18;;;;;;;;;;5057741;28;20036;-72
2023/09/09 13:31:41;;;;;;;12.73;4.47;;;;;;;;;;5066160;28;20070;-71
2023/09/09 13:34:10;;;;;;;12.10;5.23;;;;;;;;;;5064986;28;20056;-71
2023/09/09 13:36:37;;;;;;;10.90;4.65;;;;;;;;;;5056818;28;20048;-72
2023/09/09 13:39:08;;;;;;;8.47;4.80;;;;;;;;;;5061725;28;20044;-70
2023/09/09 13:41:36;;;;;;;7.30;4.30;;;;;;;;;;5082420;28;20055;-70
2023/09/09 13:44:06;;;;;;;9.48;4.45;;;;;;;;;;5063747;28;20040;-71
2023/09/09 13:46:33;;;;;;;11.60;5.35;;;;;;;;;;5057425;28;20125;-71
2023/09/09 13:49:00;;;;;;;20.17;9.13;;;;;;;;;;5062870;28;20051;-71
2023/09/09 13:51:27;;;;;;;38.70;24.10;;;;;;;;;;5071121;28;20092;-71
2023/09/09 13:53:54;;;;;;;13.57;6.03;;;;;;;;;;5062335;28;20071;-71
2023/09/09 13:56:21;;;;;;;8.13;4.33;;;;;;;;;;5029252;28;20048;-70
2023/09/09 13:58:48;;;;;;;11.60;4.78;;;;;;;;;;5028590;28;20047;-72
2023/09/09 14:01:17;;;;;;;9.30;4.40;;;;;;;;;;5047932;28;20052;-70
2023/09/09 14:03:44;;;;;;;7.65;4.05;;;;;;;;;;5067690;28;20051;-70
2023/09/09 14:06:11;;;;;;;11.25;3.53;;;;;;;;;;5080936;28;20047;-71
2023/09/09 14:08:38;;;;;;;7.38;3.72;;;;;;;;;;5029458;28;20052;-71
2023/09/09 14:11:05;;;;;;;10.13;4.03;;;;;;;;;;5052620;28;20061;-71
2023/09/09 14:13:32;;;;;;;10.93;3.90;;;;;;;;;;5046118;28;20049;-70
2023/09/09 14:15:59;;;;;;;9.87;4.43;;;;;;;;;;5044535;28;20346;-71
2023/09/09 14:18:27;;;;;;;14.70;4.40;;;;;;;;;;5040365;28;20045;-71
2023/09/09 14:20:54;;;;;;;8.75;5.10;;;;;;;;;;5048345;28;20040;-72
2023/09/09 14:23:21;;;;;;;8.30;4.45;;;;;;;;;;5038278;28;20052;-71
2023/09/09 14:25:48;;;;;;;9.23;4.10;;;;;;;;;;5041030;28;20152;-70
2023/09/09 14:28:15;;;;;;;15.80;6.30;;;;;;;;;;5038522;28;20056;-71